Huvudsida
METAR-TAF:

METAR-TAF

Flygplatser :

Namibe Airport

Namibe, Angola

latitud: 15-15-40S, longitud: 12-08-50E, höjd: 64 m

Aktuellt väderrapport

Denna rapport gjordes för 13 timmar och 57 minuter sedan, klockan 13:00 UTC
Vind 13 kt från väst
Temperatur 23°C
Fuktighet 69%
Tryck 1012 hPa
Sikt 10 km eller mer
Få moln på en höjd av 1600 ft

METAR: FNMO 141300Z 26013KT 9999 FEW016 23/17 Q1012

Tid: 03:57 (02:57 UTC)

Väderprognos

Denna rapport gjordes för 16 timmar och 12 minuter sedan, klockan 10:45 UTC
Prognos gäller från 14 kl. 12 UTC till 14 kl. 24 UTC
Vind 12 kt från väst/nordväst
Sikt 10 km eller mer
Få moln på en höjd av 2000 ft
Temporärt
från 14 kl. 18 UTC till 14 kl. 22 UTC
Vind 7 kt från sydväst
Sikt: 9000 m
Få moln på en höjd av 1500 ft
Spridda moln på en höjd av 1800 ft

TAF: FNMO 141045Z 1412/1424 29012KT 9999 FEW020 TEMPO 1418/1422 22007KT 9000 FEW015 SCT018

Aktuella väderrapporter och prognoser från 4000 flygplatser (METAR- och TAF-rapporter).

De tillgängliga stationerna syns som gula och röda prickar på kartan.

För musen över prickarna för att se namnen på stationerna.

Klicka sedan för att få väderrapporter och prognoser.

För att ändra kartan: Klicka på de gröna knapparna med ett svart kors på för att zooma in; den gröna knappen med ett streck på för att zooma ut; eller på de gröna pilarna för angränsande kartor.


METAR-TAF: